Aviation Digital Data Service (ADDS)

Output produced by METARs form (0112 UTC 17 July 2019)
found at http://www.aviationweather.gov/metar/data/
 
KLAF 162320Z 1700/1724 00000KT 3SM BR VCSH SCT040 BKN045 BKN110 
     FM170600 VRB03KT P6SM VCSH SCT009 OVC011 
     FM171100 VRB04KT P6SM SCT004 BKN015 
     FM171900 31005KT P6SM SCT024 BKN040 AMD LTD TO CLD VIS AND WIND 1701/1713
       
KLAL 162335Z 1700/1724 14005KT P6SM VCTS SCT020CB BKN050 
     FM170300 VRB03KT P6SM SCT035 BKN200 
     FM171700 19004KT P6SM FEW035 SCT100 
     FM171800 21004KT P6SM VCTS SCT040CB BKN080 
     FM172100 24004KT P6SM VCTS SCT045CB BKN090 AMD NOT SKED 1702/1711
       
KLAN 162336Z 1700/1724 18003KT P6SM VCSH FEW040 FEW100 
     FM170700 24003KT 4SM BR VCSH OVC030 
     FM171300 03005KT P6SM OVC009 
     FM171600 03005KT P6SM OVC025 
     FM171800 02007KT P6SM BKN050
       
KLAR 162320Z 1700/1724 24014G25KT P6SM VCTS BKN100CB 
     FM170200 19010KT P6SM SCT100 
     FM171700 26020G30KT P6SM SCT120
       
KLAS 162320Z 1700/1806 23018G30KT P6SM SKC 
     FM170300 23012KT P6SM SKC 
     FM172100 22015G25KT P6SM SKC 
     FM180300 23010KT P6SM SKC
       
KLAX 162329Z 1700/1806 26010KT P6SM FEW008 
     FM170400 26008KT 6SM HZ SCT010 
     FM170700 VRB03KT 5SM BR OVC008 
     FM171600 21007KT 6SM HZ BKN010 
     FM172000 26010KT P6SM SKC 
     FM180300 25009KT P6SM FEW250
       
KLBB 162320Z 1700/1724 20011KT P6SM SCT250
       
KLBE 162320Z 1700/1724 20004KT P6SM SCT120 
     FM171300 21006KT P6SM VCSH BKN090 
     FM171500 23008KT P6SM -SHRA BKN050 
     FM171800 22009KT 6SM -SHRA VCTS BKN030CB
       
KLBF 170011Z 1700/1724 13008KT P6SM SCT250
       
KLBL 162345Z 1700/1724 18014G23KT P6SM FEW250 
     FM170900 20012G20KT P6SM FEW250
       
KLBT 162320Z 1700/1724 20004KT P6SM BKN250 
     FM170300 20002KT P6SM SKC 
     FM171700 22009KT P6SM BKN050 AMD NOT SKED
       
KLCK 162320Z 1700/1724 21012KT P6SM VCSH BKN080 
     FM170200 18008KT P6SM VCSH BKN060 
     TEMPO 1703/1705 4SM -TSRA OVC040CB 
     FM170600 19008KT 4SM -SHRA BR OVC025 
     FM170900 17008KT 4SM -SHRA BR OVC012 
     FM171300 20008KT 4SM -SHRA BR OVC008 
     FM171700 23008KT P6SM VCSH OVC012 
     FM171900 26008KT P6SM VCSH BKN025 
     FM172300 28008KT P6SM BKN060
       
KLCH 161734Z 1618/1718 19010KT P6SM VCSH SCT025 BKN035 
     TEMPO 1618/1622 BKN025 
     FM170200 17004KT P6SM FEW025 SCT250 
     FM171400 19006KT P6SM SCT025 SCT060
       
KLEB 162320Z 1700/1724 19004KT P6SM BKN100 
     FM171000 00000KT 4SM -SHRA BKN040 
     FM171200 21004KT 4SM -SHRA OVC025 
     FM171700 24005KT P6SM OVC035
       
KLEE 162341Z 1700/1724 VRB06KT P6SM SCT050 SCT060 SCT110 
     FM170100 VRB03KT P6SM SCT250 
     FM171400 18004KT P6SM SCT030 
     FM172000 12008KT P6SM VCTS SCT050CB SCT250
       
KLEX 162327Z 1700/1724 20012KT P6SM BKN250 
     FM170600 20013KT P6SM SCT100 
     FM170800 20012KT P6SM SCT020 
     FM171300 21014G20KT P6SM VCTS BKN025CB
       
TAF KLFI 170100Z 1701/1807 VRB06KT 9999 BKN200 QNH3002INS 
     BECMG 1713/1714 22012KT 9999 FEW040 SCT200 QNH2992INS 
     TEMPO 1719/1723 VRB15G25KT 3200 TSRA BKN020CB BKN200 TX34/1719Z TN25/1709Z
       
KLFK 162335Z 1700/1724 16005KT P6SM SKC 
     TEMPO 1700/1703 19010KT SCT050 
     FM170800 16004KT P6SM BKN015 
     TEMPO 1710/1714 4SM BR OVC007 
     FM171500 19008KT P6SM SCT035 
     TEMPO 1715/1717 BKN025
       
KLFT 161734Z 1618/1718 19010KT P6SM VCSH SCT030 BKN050 
     TEMPO 1618/1620 BKN025 
     FM170200 18005KT P6SM FEW025 SCT250 
     FM171400 19006KT P6SM SCT025 SCT060
       
KLGA 162341Z 1700/1806 19010KT P6SM BKN250 
     FM170200 22006KT P6SM SCT150 BKN250 
     FM171500 24007KT P6SM SCT150 BKN250 
     FM171900 19012G18KT P6SM SCT050 SCT150 BKN250 
     FM172300 20010KT P6SM VCSH SCT025 BKN040 
     PROB30 1723/1805 3SM TSRA BKN025 BKN040CB
       
KLGB 162329Z 1700/1724 16009KT P6SM SKC 
     FM170100 30008KT P6SM SKC 
     FM170600 VRB03KT 4SM BR OVC008 
     FM171000 14005KT P6SM OVC010 
     FM171600 16006KT P6SM BKN012 
     FM171900 19008KT P6SM SKC
       
KLGU 162320Z 1700/1724 33007KT P6SM SCT120 
     FM170800 VRB04KT P6SM SCT120 
     FM171800 22008KT P6SM SCT120
       
KLIT 162320Z 1700/1724 21007G15KT P6SM OVC025 
     FM170300 21005KT 6SM BR OVC025 
     FM171400 22007G14KT P6SM SCT050
       
KLLQ 162320Z 1700/1724 20005KT P6SM SCT050 
     FM170900 23007KT 6SM BR SCT250 
     FM171500 23009KT P6SM BKN250
       
KLMT 162320Z 1700/1724 33011G18KT P6SM SCT060 
     FM170500 VRB03KT P6SM SKC 
     FM172300 33011G18KT P6SM SCT070
       
KLND 162320Z 1700/1724 28013G21KT P6SM FEW200 
     FM170100 28010KT P6SM FEW200 
     FM170500 25007KT P6SM FEW100 
     FM172000 27012G18KT P6SM FEW120 SCT250
       
KLNK 162320Z 1700/1724 16006KT P6SM FEW250 
     FM171500 16012G21KT P6SM SCT250
       
KLNS 162352Z 1700/1724 08005KT P6SM -SHRA VCTS BKN060CB BKN120 
     FM170200 22003KT P6SM VCSH BKN100 
     FM171500 23004KT P6SM SCT250 
     FM172000 22007G15KT P6SM VCTS BKN040CB BKN150
       
KLOZ 162335Z 1700/1724 19008KT P6SM SCT050 BKN100 
     FM170700 VRB03KT P6SM VCSH BKN050 BKN100 
     FM171400 23009G18KT 6SM -TSRA BKN030CB OVC050 
     FM172300 24010KT P6SM VCSH BKN025
       
KLRD 162334Z 1700/1724 15015G22KT P6SM SCT050 BKN150 
     FM170600 14011KT P6SM FEW030 SCT250 
     FM171400 15014KT P6SM SCT040 
     FM171700 15015G22KT P6SM SCT070
       
TAF KLRF 162300Z 1623/1805 21009KT 9999 SCT020 BKN200 QNH2991INS 
     BECMG 1703/1704 VRB06KT 8000 BR SCT035 QNH2994INS 
     BECMG 1708/1709 21006KT 8000 BR SCT035 WS020/23035KT QNH2995INS 
     BECMG 1710/1711 21006KT 8000 BR SCT008 WS020/23035KT QNH2997INS 
     BECMG 1714/1715 23010G15KT 9999 NSW FEW020 QNH2993INS 
     BECMG 1800/1801 VRB06KT 9999 FEW035 QNH2993INS TX34/1721Z TN24/1711Z
       
KLRU 162326Z 1700/1724 34012G20KT P6SM VCTS SCT110CB BKN250 
     TEMPO 1700/1702 5SM TSRA 
     FM170300 32005KT P6SM SCT100 BKN250 
     FM171400 27005KT P6SM FEW100 SCT250
       
KLSE 162330Z 1700/1724 VRB03KT P6SM VCSH BKN120 
     FM170600 VRB03KT P6SM SCT150 
     FM171000 00000KT 5SM BR SCT003 
     TEMPO 1710/1713 1SM BR BKN003 
     FM171400 16006KT P6SM BKN120
       
TAF KLSF 170100Z 1701/1807 VRB06KT 9999 FEW050 QNH3003INS 
     TEMPO 1701/1703 VRB10G20KT 4800 -TSRA BKN050CB 
     TEMPO 1709/1712 3200 BR 
     BECMG 1717/1718 25010G15KT 9999 SKC QNH3000INS 
     BECMG 1720/1721 25005KT 9999 VCTS BKN050CB QNH3002INS 
     BECMG 1800/1801 VRB06KT 9999 NSW FEW050 QNH3004INS TX35/1720Z TN25/1711Z
       
TAF KLSV 162300Z 1623/1805 19020G30KT 9999 SKC 520009 QNH2968INS 
     TEMPO 1623/1701 21020G35KT 530009 
     BECMG 1702/1703 22010G15KT 9999 SKC QNH2966INS 
     BECMG 1705/1706 VRB06KT 9999 SKC QNH2972INS 
     BECMG 1717/1718 14010G15KT 9999 SKC QNH2976INS 
     TEMPO 1721/1802 16015G25KT 520009 
     BECMG 1802/1803 VRB06KT 9999 SKC QNH2972INS TX43/1623Z TN23/1713Z
       
TAF KLTS 170100Z 1701/1807 18010G15KT 9999 SKC QNH2986INS 
     BECMG 1717/1718 20016G25KT 9999 SCT070 QNH2989INS 
     BECMG 1801/1802 18015KT 9999 SKC QNH2986INS TX37/1721Z TN25/1711Z
       
TAF AMD KLUF 162341Z 1623/1802 24012G25KT 9999 FEW140 QNH2969INS 
     BECMG 1701/1702 23009KT 9999 SKC QNH2967INS 
     BECMG 1706/1707 VRB06KT 9999 SKC QNH2971INS 
     BECMG 1720/1721 24010G15KT 9999 FEW140 QNH2968INS TX45/1623Z TN29/1713Z
       
KLVK 162340Z 1700/1724 26014G20KT P6SM SKC 
     FM170400 24008KT P6SM SKC 
     FM171000 VRB03KT P6SM SKC 
     FM171400 02008KT P6SM SKC 
     FM171900 31010KT P6SM SKC
       
KLVM 162334Z 1700/1724 26012G22KT P6SM VCTS SCT050CB BKN120 
     TEMPO 1700/1701 5SM TSRA BKN050CB 
     FM170400 23008KT P6SM VCSH SCT060 BKN080 
     FM170600 26010KT P6SM SCT100 
     FM170900 27010KT P6SM FEW100 
     FM171900 27014G24KT P6SM SCT100
       
KLVS 162326Z 1700/1724 36006KT P6SM VCSH OVC100 
     FM170400 21010KT P6SM BKN100 
     FM170800 19007KT P6SM SCT100 
     FM172000 26013G23KT P6SM SCT120
       
KLWB 162320Z 1700/1724 VRB02KT P6SM SCT050 
     FM170900 00000KT 2SM BR BKN150 
     FM171100 00000KT 4SM BR SCT020 
     FM171300 VRB02KT P6SM SCT050 BKN080 
     FM171700 23008KT 6SM SHRA VCTS BKN045CB
       
KLWS 162320Z 1700/1724 31007KT P6SM FEW050 BKN100 
     FM170300 VRB04KT P6SM SCT060 SCT200 
     FM171100 13007KT P6SM FEW060 BKN150 
     FM171500 36007KT P6SM BKN100 
     FM171900 32014G22KT P6SM SCT060 BKN090
       
KLWT 162320Z 1700/1724 VRB06KT P6SM VCSH SCT060 BKN100 
     TEMPO 1700/1703 VRB20G35KT 5SM TSRA BKN040CB 
     FM170600 VRB05KT P6SM FEW060 SCT090 
     FM171900 28013G21KT P6SM SCT090 BKN150
       
KLYH 162320Z 1700/1724 VRB03KT P6SM SCT050 
     FM170100 VRB03KT P6SM VCTS SCT050CB 
     FM170400 VRB02KT P6SM BKN150 
     FM171900 22008KT P6SM BKN060 
     FM172000 21009KT P6SM VCSH BKN040